Newburyport, MA

2:35 PM EST on March 02, 2015 (GMT -0500)
Middle St. | Change Station
CLOSE
Current Station
Personal Weather Station
Location: Newburyport, MA
Elevation: 30 ft
Nearby Weather Stations

Elev 30 ft 42.81 °N, 70.87 °W | Updated 4 minutes ago

Overcast
Overcast
36.8 °F
Feels Like 37 °F
N
2.0
Wind Variable Wind from West
Gusts 4.0 mph

Today
High -- | Low -- °F
--% Chance of Precip.
Yesterday
High -- | Low -- °F
Precip. -- in
6:18 AM 5:33 PM
Waxing Gibbous, 92% visible
Pressure 29.96 in
Visibility 7.0 miles
Clouds Overcast 6000 ft
Windchill 37 °F
Dew Point 22 °F
Humidity 54%
Rainfall 0.18 in
Snow Depth Not available.
UV 1 out of 12
Pollen .40 out of 12
Air Quality Not available.
Flu Activity Not available.
SPECI KLWM 021913Z 29016G27KT 7SM UP OVC060 01/M11 A2996 RMK AO2 PK WND 28032/1856 UPB08SNB1857E08B10E11 P0000 T00111111

More Conditions Fewer Conditions

Pressure 29.96 in
Visibility 7.0 miles
Clouds Overcast 6000 ft
Windchill 37 °F
Dew Point 22 °F
Humidity 54%
Rainfall 0.18 in
Snow Depth Not available.
UV 1 out of 12
Pollen .40 out of 12
Air Quality Not available.
Flu Activity Not available.
SPECI KLWM 021913Z 29016G27KT 7SM UP OVC060 01/M11 A2996 RMK AO2 PK WND 28032/1856 UPB08SNB1857E08B10E11 P0000 T00111111

More Conditions Fewer Conditions

10-Day Weather Forecast

Almanac

Astronomy

Mar. 02, 2015 Rise Set
Actual Time
Civil Twilight
Nautical Twilight
Astronomical Twilight
Moon
Length of Visible Light
Length of Day
Tomorrow will be .
, % of the Moon is Illuminated

Today's Extremes

State Highs State Lows

Community

WunderPhotos

Upload Photos

1,801,920 photos uploaded!

WunderBlogs® & News

Nearby

Air Quality

  Air Quality AQ Index Pollutant
Not available.

Snow Depth

Station Depth Elevation

Earthquake Activity

City Distance Mag. Time & Date
Minimum magnitude displayed is 2.5.

Coastal Water Temperatures

Place Temperature

Nearby Weather Stations